Time;durP1;ratioP1;P1;durP2;ratioP2;P2;SDS_P1;SDS_P2;PMS_P1;PMS_P2;Temp;Humidity;BMP_temperature;BMP_pressure;BME280_temperature;BME280_humidity;BME280_pressure;Samples;Min_cycle;Max_cycle;Signal;HPM_P1;HPM_P2
2023/07/28 00:02:06;;;;;;;2.22;2.03;;;18.40;89.50;;;;;;5036455;28;20387;-72
2023/07/28 00:04:34;;;;;;;3.30;2.90;;;18.40;88.80;;;;;;5034465;28;20387;-73
2023/07/28 00:06:59;;;;;;;3.42;2.00;;;18.40;88.90;;;;;;5034072;28;20418;-72
2023/07/28 00:09:25;;;;;;;5.50;2.90;;;18.40;89.80;;;;;;5034867;28;20375;-72
2023/07/28 00:11:50;;;;;;;2.50;2.20;;;18.30;92.10;;;;;;5034695;28;20379;-72
2023/07/28 00:14:16;;;;;;;2.80;2.57;;;18.30;92.90;;;;;;5034946;28;20384;-73
2023/07/28 00:16:41;;;;;;;5.30;2.73;;;18.40;90.30;;;;;;5034137;28;20405;-71
2023/07/28 00:19:07;;;;;;;2.85;2.55;;;18.40;89.10;;;;;;5034184;28;20871;-72
2023/07/28 00:21:34;;;;;;;2.78;2.58;;;18.50;89.30;;;;;;5033449;28;20474;-71
2023/07/28 00:24:00;;;;;;;3.15;2.90;;;18.40;88.00;;;;;;5034166;28;20422;-72
2023/07/28 00:26:25;;;;;;;2.80;2.60;;;18.30;91.20;;;;;;5033760;28;20437;-72
2023/07/28 00:28:51;;;;;;;4.47;2.70;;;18.30;93.40;;;;;;5033808;28;20884;-71
2023/07/28 00:31:16;;;;;;;2.83;2.55;;;18.40;90.80;;;;;;5033934;28;20386;-72
2023/07/28 00:33:42;;;;;;;3.47;2.47;;;18.40;89.70;;;;;;5034100;28;20379;-71
2023/07/28 00:36:07;;;;;;;4.60;2.50;;;18.40;88.50;;;;;;5034499;28;20690;-72
2023/07/28 00:38:33;;;;;;;2.70;2.20;;;18.40;89.00;;;;;;5034411;28;20473;-71
2023/07/28 00:40:58;;;;;;;3.03;2.73;;;18.40;89.70;;;;;;5033448;28;20437;-72
2023/07/28 00:43:24;;;;;;;3.30;2.60;;;18.40;90.00;;;;;;5033639;28;21036;-72
2023/07/28 00:45:50;;;;;;;4.47;2.75;;;18.40;91.00;;;;;;5033842;28;20375;-73
2023/07/28 00:48:17;;;;;;;4.90;2.90;;;18.40;90.40;;;;;;5033810;28;20884;-71
2023/07/28 00:50:46;;;;;;;6.13;3.70;;;18.40;90.30;;;;;;5033398;28;20383;-71
2023/07/28 00:53:11;;;;;;;4.30;3.90;;;18.40;89.90;;;;;;5033653;28;20383;-70
2023/07/28 00:55:38;;;;;;;6.77;6.07;;;18.40;88.10;;;;;;5033459;28;20387;-71
2023/07/28 00:58:04;;;;;;;7.80;6.60;;;18.40;89.90;;;;;;5033431;28;20382;-71
2023/07/28 01:00:29;;;;;;;10.93;7.40;;;18.40;91.40;;;;;;5032657;28;20383;-71
2023/07/28 01:02:56;;;;;;;8.02;7.07;;;18.40;92.40;;;;;;5032871;28;20378;-72
2023/07/28 01:05:25;;;;;;;5.70;5.20;;;18.30;93.70;;;;;;5048074;22;20384;-73
2023/07/28 01:08:12;;;;;;;5.93;5.10;;;18.40;93.10;;;;;;5012996;28;20420;-72
2023/07/28 01:10:39;;;;;;;6.05;5.15;;;18.40;91.90;;;;;;5013000;28;20377;-73
2023/07/28 01:13:04;;;;;;;5.40;4.90;;;18.40;91.10;;;;;;5013098;28;20423;-73
2023/07/28 01:15:30;;;;;;;5.80;4.23;;;18.50;90.40;;;;;;4995230;28;20425;-73
2023/07/28 01:17:55;;;;;;;5.50;3.80;;;18.40;92.70;;;;;;5012879;28;20389;-73
2023/07/28 01:20:27;;;;;;;4.70;3.90;;;18.40;94.60;;;;;;5012669;28;20396;-73
2023/07/28 01:23:10;;;;;;;3.50;3.20;;;18.30;98.20;;;;;;5012653;28;20428;-73
2023/07/28 01:26:07;;;;;;;5.20;3.63;;;18.20;99.20;;;;;;4994959;28;20439;-73
2023/07/28 01:28:34;;;;;;;7.68;4.10;;;18.20;99.90;;;;;;4995129;28;20437;-73
2023/07/28 01:31:02;;;;;;;4.30;3.90;;;18.20;99.90;;;;;;5012364;28;20393;-72
2023/07/28 01:33:28;;;;;;;5.35;4.10;;;18.20;99.90;;;;;;5012555;28;20750;-74
2023/07/28 01:35:53;;;;;;;7.22;4.70;;;18.30;99.90;;;;;;5012899;28;20381;-73
2023/07/28 01:38:19;;;;;;;4.85;4.45;;;18.20;99.90;;;;;;5012449;28;20420;-73
2023/07/28 01:40:44;;;;;;;5.50;4.70;;;18.30;99.90;;;;;;5012371;28;20393;-72
2023/07/28 01:43:10;;;;;;;8.27;4.40;;;18.30;99.90;;;;;;5012184;28;20753;-73
2023/07/28 01:45:35;;;;;;;7.38;5.68;;;18.20;99.90;;;;;;5012324;28;20385;-72
2023/07/28 01:48:01;;;;;;;7.80;5.57;;;18.20;99.90;;;;;;5010936;28;20930;-73
2023/07/28 01:50:27;;;;;;;6.07;5.20;;;18.10;99.90;;;;;;4994562;28;20429;-72
2023/07/28 01:52:52;;;;;;;7.90;5.78;;;18.10;99.90;;;;;;5012054;28;20384;-72
2023/07/28 01:55:18;;;;;;;11.45;7.10;;;18.20;99.90;;;;;;5012120;28;20377;-72
2023/07/28 01:57:55;;;;;;;7.30;6.30;;;18.20;99.90;;;;;;5012012;28;20385;-72
2023/07/28 02:00:20;;;;;;;9.60;6.77;;;18.20;99.90;;;;;;5012092;28;20470;-72
2023/07/28 02:02:47;;;;;;;8.00;6.90;;;18.20;99.90;;;;;;5010447;28;20738;-73
2023/07/28 02:05:12;;;;;;;9.20;6.10;;;18.10;99.90;;;;;;5011971;28;20385;-73
2023/07/28 02:07:38;;;;;;;8.35;5.70;;;18.10;99.90;;;;;;5011695;28;20420;-73
2023/07/28 02:10:04;;;;;;;6.63;4.60;;;18.00;99.90;;;;;;5011678;28;20483;-72
2023/07/28 02:12:29;;;;;;;6.40;3.83;;;18.00;99.90;;;;;;5011733;28;20482;-72
2023/07/28 02:14:55;;;;;;;3.50;3.17;;;18.00;99.90;;;;;;5011831;28;20384;-73
2023/07/28 02:17:21;;;;;;;4.60;3.80;;;18.00;99.90;;;;;;5011654;28;20432;-73
2023/07/28 02:19:47;;;;;;;4.00;3.60;;;18.00;99.90;;;;;;5011731;28;20854;-73
2023/07/28 02:22:12;;;;;;;4.28;3.60;;;18.00;99.90;;;;;;5011340;28;20389;-72
2023/07/28 02:24:38;;;;;;;6.13;3.53;;;18.00;99.90;;;;;;5011523;28;20393;-73
2023/07/28 02:27:04;;;;;;;7.13;4.07;;;18.00;99.90;;;;;;5011555;28;20460;-71
2023/07/28 02:29:29;;;;;;;4.68;4.00;;;18.00;99.90;;;;;;5011699;28;20794;-72
2023/07/28 02:31:55;;;;;;;5.10;3.72;;;17.90;99.90;;;;;;5011368;28;20440;-73
2023/07/28 02:34:20;;;;;;;4.97;3.60;;;18.00;99.90;;;;;;5011492;28;20403;-73
2023/07/28 02:36:46;;;;;;;3.83;3.50;;;17.90;99.90;;;;;;5012285;28;20385;-74
2023/07/28 02:39:12;;;;;;;5.18;3.63;;;17.90;99.90;;;;;;5012928;28;20388;-72
2023/07/28 02:41:38;;;;;;;4.57;3.80;;;18.00;99.90;;;;;;5012419;28;20859;-73
2023/07/28 02:44:03;;;;;;;4.23;3.80;;;17.90;99.90;;;;;;5011323;28;20424;-72
2023/07/28 02:46:29;;;;;;;4.20;3.90;;;17.90;99.90;;;;;;5011372;28;20743;-73
2023/07/28 02:48:54;;;;;;;3.60;3.30;;;18.00;99.90;;;;;;5010862;28;20885;-72
2023/07/28 02:51:20;;;;;;;4.33;4.03;;;18.00;99.90;;;;;;5010754;28;20893;-72
2023/07/28 02:53:46;;;;;;;4.35;3.97;;;18.00;99.90;;;;;;5010685;28;20388;-73
2023/07/28 02:56:11;;;;;;;5.60;4.10;;;17.90;99.90;;;;;;5010892;28;20381;-73
2023/07/28 02:58:37;;;;;;;4.17;3.77;;;17.90;99.90;;;;;;5006259;28;20489;-72
2023/07/28 03:01:02;;;;;;;6.37;4.37;;;18.00;99.90;;;;;;5004643;28;20397;-73
2023/07/28 03:03:28;;;;;;;5.78;4.13;;;17.90;99.90;;;;;;4992283;28;20401;-74
2023/07/28 03:05:54;;;;;;;4.97;3.53;;;17.90;99.90;;;;;;4991358;28;20700;-74
2023/07/28 03:08:20;;;;;;;7.00;4.10;;;17.90;99.90;;;;;;4996101;28;20417;-74
2023/07/28 03:10:45;;;;;;;4.83;4.07;;;17.90;99.90;;;;;;5007418;28;20428;-75
2023/07/28 03:13:11;;;;;;;4.17;3.70;;;18.00;99.90;;;;;;5010651;28;20806;-74
2023/07/28 03:15:36;;;;;;;4.30;3.72;;;18.00;99.90;;;;;;5010849;28;20443;-75
2023/07/28 03:18:02;;;;;;;7.17;4.30;;;18.00;99.90;;;;;;5011070;28;20790;-74
2023/07/28 03:20:27;;;;;;;5.30;4.80;;;18.00;99.90;;;;;;5010670;28;20869;-74
2023/07/28 03:22:54;;;;;;;6.05;4.78;;;18.00;99.90;;;;;;4973370;28;20410;-74
2023/07/28 03:25:20;;;;;;;5.20;4.70;;;18.00;99.90;;;;;;4993998;28;20396;-72
2023/07/28 03:27:46;;;;;;;6.55;5.20;;;18.00;99.90;;;;;;5010646;28;20404;-74
2023/07/28 03:30:13;;;;;;;6.30;5.70;;;18.00;99.90;;;;;;5010729;28;20393;-73
2023/07/28 03:32:38;;;;;;;6.07;5.45;;;18.10;99.90;;;;;;5009949;28;20508;-72
2023/07/28 03:35:05;;;;;;;6.57;5.97;;;18.10;99.90;;;;;;5010685;28;20416;-72
2023/07/28 03:37:31;;;;;;;10.00;7.80;;;18.10;99.90;;;;;;5010661;28;20388;-72
2023/07/28 03:39:57;;;;;;;9.70;7.30;;;18.00;99.90;;;;;;5010839;28;20404;-73
2023/07/28 03:42:23;;;;;;;9.20;6.43;;;18.00;99.90;;;;;;5010692;28;20392;-73
2023/07/28 03:44:48;;;;;;;13.73;6.90;;;18.10;99.90;;;;;;5010995;28;20779;-73
2023/07/28 03:47:14;;;;;;;5.70;5.13;;;18.10;99.90;;;;;;5010518;28;20770;-72
2023/07/28 03:49:39;;;;;;;5.18;4.68;;;18.10;99.90;;;;;;5010615;28;20396;-73
2023/07/28 03:52:05;;;;;;;7.33;6.63;;;18.10;99.90;;;;;;5010356;28;20391;-73
2023/07/28 03:54:31;;;;;;;5.53;5.03;;;18.00;99.90;;;;;;5010764;28;20391;-73
2023/07/28 03:56:56;;;;;;;5.60;4.80;;;18.10;99.90;;;;;;5010697;28;20774;-72
2023/07/28 03:59:22;;;;;;;18.85;10.40;;;18.00;99.90;;;;;;5010508;28;20443;-72
2023/07/28 04:01:47;;;;;;;7.60;5.30;;;18.00;99.90;;;;;;5010284;28;20531;-72
2023/07/28 04:04:13;;;;;;;7.70;4.90;;;18.00;99.90;;;;;;5010504;28;20407;-73
2023/07/28 04:06:41;;;;;;;6.45;5.13;;;18.10;99.90;;;;;;5010274;28;20768;-73
2023/07/28 04:09:08;;;;;;;5.77;4.53;;;18.20;99.90;;;;;;5010397;28;20389;-72
2023/07/28 04:11:33;;;;;;;5.10;4.60;;;18.20;99.90;;;;;;5008997;28;20428;-73
2023/07/28 04:13:59;;;;;;;5.87;4.43;;;18.20;99.90;;;;;;5010380;28;20439;-72
2023/07/28 04:16:24;;;;;;;5.50;5.00;;;18.20;99.90;;;;;;5010923;28;20397;-72
2023/07/28 04:18:50;;;;;;;8.03;5.00;;;18.20;99.90;;;;;;5010271;28;20392;-74
2023/07/28 04:21:15;;;;;;;5.50;4.90;;;18.30;99.90;;;;;;5010296;28;20384;-72
2023/07/28 04:23:41;;;;;;;8.47;6.10;;;18.20;99.90;;;;;;5010496;28;20887;-72
2023/07/28 04:26:06;;;;;;;7.67;5.00;;;18.30;99.90;;;;;;5009942;28;20392;-72
2023/07/28 04:28:32;;;;;;;7.80;4.55;;;18.20;99.90;;;;;;5010052;28;20384;-72
2023/07/28 04:30:58;;;;;;;5.40;4.90;;;18.40;99.90;;;;;;5009813;28;20896;-72
2023/07/28 04:33:23;;;;;;;4.90;4.40;;;18.40;99.90;;;;;;5010107;28;20389;-73
2023/07/28 04:35:49;;;;;;;5.00;4.30;;;18.30;99.90;;;;;;5012649;28;20393;-75
2023/07/28 04:38:14;;;;;;;5.43;4.20;;;18.40;99.90;;;;;;5014388;28;20381;-72
2023/07/28 04:40:40;;;;;;;7.20;4.60;;;18.40;99.90;;;;;;5013440;28;20475;-72
2023/07/28 04:43:05;;;;;;;6.15;4.60;;;18.40;99.90;;;;;;5014051;28;20392;-73
2023/07/28 04:45:31;;;;;;;5.10;4.60;;;18.40;99.90;;;;;;5013477;28;20408;-73
2023/07/28 04:47:56;;;;;;;5.07;4.00;;;18.40;99.90;;;;;;5013426;28;20420;-73
2023/07/28 04:50:22;;;;;;;4.82;3.60;;;18.40;99.90;;;;;;5013500;28;20398;-75
2023/07/28 04:52:47;;;;;;;13.00;3.40;;;18.60;99.90;;;;;;5012228;28;20889;-73
2023/07/28 04:55:13;;;;;;;4.60;3.10;;;18.50;99.90;;;;;;5012764;28;20460;-73
2023/07/28 04:57:38;;;;;;;4.05;3.15;;;18.60;99.90;;;;;;5014173;28;20389;-74
2023/07/28 05:00:05;;;;;;;5.07;3.90;;;18.70;99.90;;;;;;5013366;28;20404;-73
2023/07/28 05:02:30;;;;;;;7.80;3.90;;;18.70;99.90;;;;;;5013675;28;20894;-73
2023/07/28 05:04:56;;;;;;;5.00;3.30;;;18.70;99.90;;;;;;5013027;28;20539;-72
2023/07/28 05:07:21;;;;;;;3.75;3.45;;;18.70;99.90;;;;;;5012597;28;20412;-73
2023/07/28 05:09:47;;;;;;;4.40;3.30;;;18.80;99.90;;;;;;5013082;28;20750;-73
2023/07/28 05:12:13;;;;;;;3.80;3.03;;;18.90;99.90;;;;;;5012957;28;20393;-73
2023/07/28 05:14:38;;;;;;;3.60;3.30;;;19.00;99.90;;;;;;5014304;28;20376;-74
2023/07/28 05:17:04;;;;;;;5.47;3.40;;;19.10;99.90;;;;;;5014932;28;20391;-73
2023/07/28 05:19:30;;;;;;;5.85;3.50;;;19.10;99.90;;;;;;5013862;28;20467;-74
2023/07/28 05:21:55;;;;;;;5.30;3.80;;;19.20;99.90;;;;;;5013167;28;20397;-72
2023/07/28 05:24:21;;;;;;;4.30;3.90;;;19.20;97.90;;;;;;5012832;28;20812;-73
2023/07/28 05:26:46;;;;;;;5.00;3.90;;;19.20;99.80;;;;;;5012672;28;20496;-73
2023/07/28 05:29:12;;;;;;;4.47;4.07;;;19.20;97.20;;;;;;5011319;28;20451;-73
2023/07/28 05:31:37;;;;;;;5.03;3.90;;;19.20;99.50;;;;;;5012975;28;20389;-73
2023/07/28 05:34:04;;;;;;;10.43;4.10;;;19.20;98.90;;;;;;5013209;28;20476;-73
2023/07/28 05:36:29;;;;;;;6.28;4.00;;;19.30;94.90;;;;;;5012791;28;20400;-73
2023/07/28 05:38:56;;;;;;;4.20;3.80;;;19.30;97.10;;;;;;5013198;28;20558;-73
2023/07/28 05:41:22;;;;;;;6.25;4.15;;;19.40;94.60;;;;;;5013038;28;20400;-74
2023/07/28 05:43:48;;;;;;;4.30;3.90;;;19.50;92.50;;;;;;5013724;28;20400;-73
2023/07/28 05:46:13;;;;;;;4.20;3.90;;;19.50;89.70;;;;;;5012212;28;20400;-74
2023/07/28 05:48:39;;;;;;;7.22;4.18;;;19.50;91.90;;;;;;5012913;28;20440;-74
2023/07/28 05:51:05;;;;;;;5.50;4.10;;;19.40;94.30;;;;;;5012907;28;20408;-73
2023/07/28 05:53:30;;;;;;;4.57;3.60;;;19.40;91.70;;;;;;5012854;28;20769;-73
2023/07/28 05:55:56;;;;;;;5.00;4.30;;;19.40;91.90;;;;;;5012998;28;20396;-73
2023/07/28 05:58:22;;;;;;;5.27;4.27;;;19.40;91.50;;;;;;5013517;28;20793;-73
2023/07/28 06:00:48;;;;;;;4.80;4.40;;;19.40;93.90;;;;;;5013104;28;20786;-73
2023/07/28 06:03:13;;;;;;;5.60;4.30;;;19.40;93.00;;;;;;5012850;28;20392;-73
2023/07/28 06:05:42;;;;;;;4.07;3.70;;;19.50;90.70;;;;;;5013930;28;20886;-73
2023/07/28 06:08:08;;;;;;;5.15;3.90;;;19.60;89.50;;;;;;5012597;28;20507;-74
2023/07/28 06:10:34;;;;;;;5.95;4.15;;;19.60;91.30;;;;;;5014840;28;20900;-73
2023/07/28 06:13:00;;;;;;;4.65;4.00;;;19.70;86.00;;;;;;5016477;28;20389;-73
2023/07/28 06:15:26;;;;;;;4.82;3.95;;;19.80;88.10;;;;;;5014733;28;20459;-73
2023/07/28 06:17:52;;;;;;;3.50;3.20;;;19.80;85.60;;;;;;5015826;28;20448;-73
2023/07/28 06:20:18;;;;;;;4.60;2.90;;;19.70;84.90;;;;;;5012778;28;20478;-73
2023/07/28 06:22:43;;;;;;;4.30;2.53;;;19.70;85.10;;;;;;5012551;28;20413;-74
2023/07/28 06:25:09;;;;;;;3.53;2.87;;;19.60;85.80;;;;;;4995187;28;20782;-73
2023/07/28 06:27:35;;;;;;;4.50;2.73;;;19.70;85.90;;;;;;5011799;28;20420;-72
2023/07/28 06:30:00;;;;;;;3.65;2.40;;;19.70;86.10;;;;;;5013117;28;20395;-73
2023/07/28 06:32:27;;;;;;;4.00;2.70;;;19.60;88.30;;;;;;5016712;28;20777;-73
2023/07/28 06:34:53;;;;;;;4.30;2.90;;;19.60;89.60;;;;;;5017913;28;20384;-73
2023/07/28 06:37:19;;;;;;;3.13;2.70;;;19.60;89.30;;;;;;5015557;28;20400;-73
2023/07/28 06:39:44;;;;;;;4.10;3.00;;;19.60;88.30;;;;;;5013459;28;20400;-72
2023/07/28 06:42:11;;;;;;;5.03;4.60;;;19.60;90.30;;;;;;5011298;28;20547;-72
2023/07/28 06:44:37;;;;;;;6.93;6.28;;;19.60;90.70;;;;;;5011385;28;20540;-72
2023/07/28 06:47:03;;;;;;;3.03;2.70;;;19.50;96.20;;;;;;5011371;28;20582;-72
2023/07/28 06:49:28;;;;;;;3.53;2.80;;;19.60;92.40;;;;;;5011170;28;20475;-73
2023/07/28 06:51:54;;;;;;;3.13;2.90;;;19.70;91.50;;;;;;5011256;28;20722;-73
2023/07/28 06:54:19;;;;;;;3.47;2.67;;;19.60;93.60;;;;;;5011332;28;20754;-73
2023/07/28 06:56:45;;;;;;;5.95;3.00;;;19.70;94.40;;;;;;5011619;28;20790;-73
2023/07/28 06:59:11;;;;;;;3.00;2.70;;;19.70;95.00;;;;;;5011547;28;20397;-73
2023/07/28 07:01:37;;;;;;;2.60;2.40;;;19.80;90.60;;;;;;5011324;28;20397;-74
2023/07/28 07:04:04;;;;;;;3.20;2.90;;;19.90;86.60;;;;;;5011297;28;20854;-73
2023/07/28 07:06:30;;;;;;;4.22;3.05;;;19.90;86.30;;;;;;5031590;22;20414;-74
2023/07/28 07:08:55;;;;;;;6.22;3.30;;;19.90;83.70;;;;;;5031462;28;20375;-74
2023/07/28 07:11:21;;;;;;;5.63;3.40;;;19.90;85.20;;;;;;5012805;28;20933;-74
2023/07/28 07:13:46;;;;;;;3.70;3.40;;;19.90;82.80;;;;;;5031097;28;20422;-73
2023/07/28 07:16:18;;;;;;;4.55;3.80;;;19.90;84.50;;;;;;5030652;28;20426;-74
2023/07/28 07:18:44;;;;;;;5.00;3.83;;;19.80;89.00;;;;;;5012688;28;20411;-74
2023/07/28 07:21:10;;;;;;;6.20;3.73;;;19.80;92.00;;;;;;5030582;28;20418;-74
2023/07/28 07:23:36;;;;;;;4.20;2.83;;;19.90;89.00;;;;;;5030408;28;20379;-73
2023/07/28 07:26:02;;;;;;;5.00;3.72;;;20.00;88.40;;;;;;5030526;28;20394;-74
2023/07/28 07:28:28;;;;;;;4.15;3.00;;;20.10;91.20;;;;;;5030281;28;20411;-73
2023/07/28 07:30:54;;;;;;;3.70;2.90;;;20.30;87.70;;;;;;5030537;28;20391;-74
2023/07/28 07:33:20;;;;;;;2.83;2.55;;;20.40;85.90;;;;;;5031222;28;20460;-73
2023/07/28 07:35:46;;;;;;;3.25;3.00;;;20.40;83.50;;;;;;5030893;28;20482;-73
2023/07/28 07:38:11;;;;;;;2.63;2.42;;;20.50;83.40;;;;;;5030992;28;20383;-73
2023/07/28 07:40:37;;;;;;;3.50;2.80;;;20.50;80.50;;;;;;5030627;28;20399;-73
2023/07/28 07:43:03;;;;;;;7.05;2.10;;;20.80;79.10;;;;;;5035213;28;20736;-74
2023/07/28 07:45:32;;;;;;;4.50;1.88;;;20.90;75.40;;;;;;5038118;28;20406;-74
2023/07/28 07:48:01;;;;;;;3.22;1.60;;;20.90;74.60;;;;;;5037545;28;20406;-74
2023/07/28 07:50:26;;;;;;;5.00;2.53;;;21.10;74.00;;;;;;5035766;28;20876;-75
2023/07/28 07:52:52;;;;;;;7.63;2.37;;;21.20;72.40;;;;;;5036513;28;20470;-74
2023/07/28 07:55:17;;;;;;;3.08;2.40;;;21.20;69.40;;;;;;5034107;28;20428;-74
2023/07/28 07:57:43;;;;;;;3.30;2.50;;;21.10;68.90;;;;;;5030632;28;20390;-75
2023/07/28 08:00:10;;;;;;;3.50;3.20;;;21.20;69.50;;;;;;5031346;28;20391;-76
2023/07/28 08:02:36;;;;;;;4.22;3.83;;;21.10;71.00;;;;;;5030629;28;20485;-74
2023/07/28 08:05:02;;;;;;;3.30;3.00;;;21.20;66.70;;;;;;5030173;28;20805;-75
2023/07/28 08:07:28;;;;;;;4.47;2.90;;;21.30;64.70;;;;;;5029658;28;20416;-75
2023/07/28 08:09:53;;;;;;;4.40;3.30;;;21.40;65.60;;;;;;5033102;28;20391;-75
2023/07/28 08:12:19;;;;;;;5.70;3.60;;;21.40;65.60;;;;;;5016063;28;20948;-75
2023/07/28 08:14:46;;;;;;;4.15;3.72;;;21.40;65.60;;;;;;5033980;28;20379;-74
2023/07/28 08:17:12;;;;;;;7.35;4.45;;;21.30;65.80;;;;;;5034701;28;20410;-75
2023/07/28 08:19:37;;;;;;;4.63;3.42;;;21.20;66.10;;;;;;5034840;28;20387;-74
2023/07/28 08:22:03;;;;;;;6.13;3.05;;;21.00;66.30;;;;;;5034620;28;20879;-74
2023/07/28 08:24:29;;;;;;;5.97;3.30;;;20.90;66.80;;;;;;5034429;28;20749;-74
2023/07/28 08:26:55;;;;;;;5.95;3.47;;;20.90;67.70;;;;;;5034079;28;20411;-75
2023/07/28 08:29:20;;;;;;;6.67;3.60;;;20.80;68.60;;;;;;5033971;28;20391;-74
2023/07/28 08:31:46;;;;;;;6.70;3.80;;;20.80;69.80;;;;;;5033733;28;20486;-74
2023/07/28 08:34:12;;;;;;;5.55;3.60;;;20.90;69.20;;;;;;5033948;28;20387;-73
2023/07/28 08:36:38;;;;;;;4.47;3.60;;;20.90;67.30;;;;;;5033917;28;20436;-73
2023/07/28 08:39:05;;;;;;;6.80;4.00;;;20.90;69.00;;;;;;5033921;28;20382;-75
2023/07/28 08:41:30;;;;;;;6.80;3.80;;;20.90;67.60;;;;;;5033680;28;20452;-73
2023/07/28 08:43:57;;;;;;;5.17;4.23;;;20.90;67.30;;;;;;5033825;28;20612;-75
2023/07/28 08:46:23;;;;;;;7.60;3.97;;;20.80;69.10;;;;;;5033232;28;20418;-74
2023/07/28 08:48:48;;;;;;;5.55;3.70;;;21.00;67.20;;;;;;5033350;28;20387;-74
2023/07/28 08:51:14;;;;;;;5.00;3.30;;;20.90;67.50;;;;;;5033067;28;20878;-74
2023/07/28 08:53:40;;;;;;;6.53;3.38;;;21.00;65.40;;;;;;5015145;28;20480;-73
2023/07/28 08:56:06;;;;;;;3.90;3.50;;;21.40;60.90;;;;;;5032745;28;20466;-74
2023/07/28 08:58:31;;;;;;;3.20;2.90;;;21.60;59.70;;;;;;5032953;28;20407;-74
2023/07/28 09:01:00;;;;;;;5.90;3.40;;;21.80;56.00;;;;;;5033146;28;20387;-74
2023/07/28 09:03:27;;;;;;;5.35;3.30;;;22.00;57.00;;;;;;5033129;28;20467;-74
2023/07/28 09:05:59;;;;;;;4.18;3.00;;;22.30;53.80;;;;;;5015072;28;20391;-74
2023/07/28 09:08:25;;;;;;;5.30;2.70;;;22.40;50.70;;;;;;5034027;28;20411;-73
2023/07/28 09:10:57;;;;;;;5.20;3.13;;;22.50;51.10;;;;;;5033554;28;20576;-74
2023/07/28 09:13:23;;;;;;;7.70;3.17;;;22.40;53.20;;;;;;5033373;28;20462;-74
2023/07/28 09:15:49;;;;;;;4.60;2.88;;;22.40;52.60;;;;;;5034205;28;20812;-74
2023/07/28 09:18:17;;;;;;;4.28;3.17;;;22.40;52.40;;;;;;5034110;28;20379;-75
2023/07/28 09:20:43;;;;;;;3.25;2.60;;;22.50;51.30;;;;;;5033245;28;20375;-74
2023/07/28 09:23:10;;;;;;;7.23;3.20;;;22.60;50.90;;;;;;5034435;28;20383;-74
2023/07/28 09:25:37;;;;;;;5.00;2.70;;;23.00;50.80;;;;;;5034316;28;20444;-75
2023/07/28 09:28:03;;;;;;;3.38;2.55;;;23.60;48.20;;;;;;5033625;28;20418;-75
2023/07/28 09:30:50;;;;;;;7.93;2.42;;;23.70;46.00;;;;;;5034047;28;20391;-74
2023/07/28 09:33:32;;;;;;;2.50;2.30;;;23.70;43.20;;;;;;5035405;28;20379;-73
2023/07/28 09:36:13;;;;;;;3.92;2.60;;;23.70;44.40;;;;;;5039620;28;20383;-74
2023/07/28 09:38:41;;;;;;;3.83;2.50;;;23.40;45.50;;;;;;5036795;28;20428;-74
2023/07/28 09:41:09;;;;;;;3.47;2.72;;;23.50;45.00;;;;;;5035676;28;20387;-74
2023/07/28 09:43:36;;;;;;;4.60;3.00;;;23.40;47.30;;;;;;5035030;28;20433;-74
2023/07/28 09:46:06;;;;;;;3.70;2.60;;;23.10;46.40;;;;;;5034437;28;20379;-74
2023/07/28 09:48:33;;;;;;;2.60;2.28;;;22.90;47.10;;;;;;5033979;28;20398;-73
2023/07/28 09:51:04;;;;;;;3.85;2.60;;;22.90;46.90;;;;;;5033982;28;20395;-73
2023/07/28 09:53:32;;;;;;;6.13;2.10;;;23.00;48.00;;;;;;5033225;28;20380;-74
2023/07/28 09:55:58;;;;;;;2.28;1.80;;;23.10;46.60;;;;;;5034475;28;20781;-74
2023/07/28 09:58:25;;;;;;;2.50;2.17;;;23.10;45.00;;;;;;5033702;28;20482;-73
2023/07/28 10:00:51;;;;;;;3.88;2.40;;;23.10;45.20;;;;;;5017202;28;20731;-73
2023/07/28 10:03:17;;;;;;;2.47;1.95;;;23.30;42.90;;;;;;5033875;28;20467;-73
2023/07/28 10:05:44;;;;;;;2.50;2.30;;;23.60;42.70;;;;;;5037381;28;20856;-74
2023/07/28 10:08:10;;;;;;;4.75;2.20;;;23.60;43.00;;;;;;5037470;28;20399;-74
2023/07/28 10:10:36;;;;;;;3.10;2.00;;;23.70;41.20;;;;;;5035904;28;20375;-73
2023/07/28 10:13:02;;;;;;;3.13;2.20;;;23.80;40.90;;;;;;5015475;28;20963;-74
2023/07/28 10:15:32;;;;;;;2.10;1.90;;;24.30;40.00;;;;;;5032429;28;20383;-74
2023/07/28 10:17:59;;;;;;;2.88;2.00;;;24.60;37.80;;;;;;5031896;28;20420;-74
2023/07/28 10:20:30;;;;;;;2.50;1.90;;;24.80;37.00;;;;;;5031615;28;20764;-74
2023/07/28 10:23:16;;;;;;;2.65;2.45;;;25.30;35.80;;;;;;5031442;28;20419;-74
2023/07/28 10:25:43;;;;;;;2.45;1.70;;;25.50;33.80;;;;;;5031465;28;20410;-74
2023/07/28 10:28:38;;;;;;;4.30;2.00;;;25.70;32.50;;;;;;5031587;28;20498;-74
2023/07/28 10:31:05;;;;;;;1.80;1.70;;;25.50;33.80;;;;;;5031224;28;20379;-74
2023/07/28 10:33:34;;;;;;;1.90;1.60;;;25.60;34.40;;;;;;5013867;28;20383;-74
2023/07/28 10:36:10;;;;;;;1.75;1.65;;;25.60;32.80;;;;;;5031388;28;20387;-74
2023/07/28 10:38:37;;;;;;;1.90;1.60;;;25.50;32.60;;;;;;5031623;28;20387;-74
2023/07/28 10:41:15;;;;;;;2.80;1.55;;;25.20;34.40;;;;;;5033487;28;20387;-75
2023/07/28 10:43:41;;;;;;;1.58;1.30;;;25.10;34.30;;;;;;5033022;28;20391;-74
2023/07/28 10:46:09;;;;;;;2.33;1.90;;;25.00;34.60;;;;;;5032369;28;20448;-76
2023/07/28 10:48:36;;;;;;;2.13;2.00;;;24.80;35.40;;;;;;5032907;28;20472;-75
2023/07/28 10:51:02;;;;;;;2.30;2.10;;;24.40;37.40;;;;;;5014989;28;20395;-75
2023/07/28 10:53:27;;;;;;;3.60;2.17;;;24.20;39.80;;;;;;5032254;28;20437;-75
2023/07/28 10:55:53;;;;;;;2.10;1.70;;;24.00;42.10;;;;;;5032683;28;20412;-76
2023/07/28 10:58:20;;;;;;;2.20;1.90;;;24.00;42.10;;;;;;5031633;28;20834;-74
2023/07/28 11:00:45;;;;;;;1.80;1.70;;;24.40;40.60;;;;;;5031714;28;20889;-74
2023/07/28 11:03:12;;;;;;;1.88;1.70;;;25.00;38.80;;;;;;5031843;28;20473;-75
2023/07/28 11:05:39;;;;;;;2.10;1.50;;;25.50;36.20;;;;;;5031786;28;20458;-75
2023/07/28 11:08:07;;;;;;;1.80;1.60;;;26.00;33.30;;;;;;5031948;28;20778;-75
2023/07/28 11:10:34;;;;;;;1.73;1.40;;;26.50;32.20;;;;;;5032871;28;20387;-75
2023/07/28 11:13:02;;;;;;;4.30;1.63;;;26.90;31.60;;;;;;5031953;28;20387;-75
2023/07/28 11:15:28;;;;;;;3.40;1.40;;;26.80;30.90;;;;;;5014286;28;20383;-75
2023/07/28 11:17:54;;;;;;;2.10;1.10;;;26.60;31.30;;;;;;5032019;28;20950;-75
2023/07/28 11:20:24;;;;;;;3.57;1.57;;;26.60;29.70;;;;;;5032145;28;20390;-75
2023/07/28 11:22:54;;;;;;;3.55;1.40;;;26.50;30.00;;;;;;5031501;28;20445;-75
2023/07/28 11:25:21;;;;;;;2.40;1.60;;;26.70;30.00;;;;;;5031458;28;20441;-75
2023/07/28 11:27:47;;;;;;;5.15;1.50;;;26.90;29.70;;;;;;5031568;28;20417;-75
2023/07/28 11:30:16;;;;;;;2.83;1.40;;;27.10;29.60;;;;;;5031761;28;20375;-75
2023/07/28 11:32:47;;;;;;;1.70;1.10;;;27.10;29.80;;;;;;5031788;28;20913;-75
2023/07/28 11:35:16;;;;;;;2.97;1.10;;;26.90;30.00;;;;;;5031771;28;20420;-75
2023/07/28 11:37:44;;;;;;;2.80;1.20;;;26.80;28.00;;;;;;5031520;28;20771;-75
2023/07/28 11:40:11;;;;;;;2.00;1.00;;;26.70;28.90;;;;;;5013514;28;20391;-75
2023/07/28 11:43:06;;;;;;;2.00;1.10;;;26.30;29.10;;;;;;5031261;28;20895;-76
2023/07/28 11:45:32;;;;;;;1.30;1.20;;;26.00;29.80;;;;;;5026171;28;20399;-75
2023/07/28 11:48:02;;;;;;;4.60;1.20;;;25.50;31.20;;;;;;5034737;28;20867;-74
2023/07/28 11:50:30;;;;;;;2.80;1.20;;;25.00;35.10;;;;;;5035703;28;20462;-75
2023/07/28 11:52:57;;;;;;;1.42;1.20;;;24.70;36.50;;;;;;5035135;28;20752;-75
2023/07/28 11:55:23;;;;;;;2.08;1.10;;;24.70;38.30;;;;;;5035411;28;20424;-74
2023/07/28 11:57:51;;;;;;;1.45;1.10;;;25.10;37.20;;;;;;5035057;28;20871;-75
2023/07/28 12:00:16;;;;;;;4.38;1.20;;;25.30;35.00;;;;;;5035315;28;20387;-75
2023/07/28 12:02:43;;;;;;;1.30;1.00;;;25.40;34.90;;;;;;5034558;28;20413;-74
2023/07/28 12:05:16;;;;;;;1.33;1.05;;;25.50;32.50;;;;;;5034718;28;20387;-74
2023/07/28 12:07:48;;;;;;;1.20;1.10;;;25.60;32.10;;;;;;5016333;28;20773;-75
2023/07/28 12:10:13;;;;;;;2.20;1.50;;;25.70;33.30;;;;;;5015957;28;20386;-73
2023/07/28 12:12:44;;;;;;;2.00;1.80;;;25.80;35.00;;;;;;5033818;28;20844;-74
2023/07/28 12:15:27;;;;;;;4.03;1.40;;;25.80;34.40;;;;;;5033751;28;20882;-73
2023/07/28 12:18:13;;;;;;;2.20;1.10;;;26.00;32.00;;;;;;5032019;28;20430;-74
2023/07/28 12:20:41;;;;;;;1.60;1.10;;;26.60;30.30;;;;;;5032719;28;20460;-73
2023/07/28 12:23:08;;;;;;;1.60;1.10;;;27.00;29.20;;;;;;5019298;28;20395;-72
2023/07/28 12:25:36;;;;;;;2.42;1.27;;;27.60;27.70;;;;;;5032563;28;20410;-72
2023/07/28 12:28:02;;;;;;;1.40;1.00;;;27.70;25.30;;;;;;5032105;28;20411;-71
2023/07/28 12:30:27;;;;;;;4.15;1.10;;;27.60;26.60;;;;;;5032036;28;20387;-72
2023/07/28 12:32:53;;;;;;;1.93;1.10;;;27.60;26.30;;;;;;5032181;28;20882;-72
2023/07/28 12:35:20;;;;;;;1.40;0.90;;;27.60;25.90;;;;;;5029853;28;20779;-72
2023/07/28 12:37:46;;;;;;;1.17;1.08;;;27.40;26.10;;;;;;5032302;28;20787;-73
2023/07/28 12:40:12;;;;;;;6.00;1.10;;;27.00;27.40;;;;;;5032014;28;20391;-72
2023/07/28 12:42:38;;;;;;;1.80;1.10;;;26.60;29.10;;;;;;5013984;28;20466;-75
2023/07/28 12:45:06;;;;;;;1.20;1.10;;;26.10;30.10;;;;;;5030895;28;20402;-74